Terminal Aerodrome Forecast
Issued by NWS Des Moines, IA

Home | Current Version | Previous Version | Text Only | Print | Product List | Glossary On
Versions: 1 2 3 4 5 6 7 8 9 10 11 12 13 14 15 16 17 18 19 20 21 22 23 24 25 26 27 28 29 30 31 32 33 34 35
000
FTUS43 KDMX 021317 AAA
TAFALO
TAF AMD
KALO 021317Z 0213/0312 VRB04KT P6SM SCT200
      TEMPO 0213/0215 1SM BR
     FM021600 15007KT P6SM BKN150
     FM030800 16017KT 2SM -SN SCT006 OVC010=

USA.gov is the U.S. government's official web portal to all federal, state and local government web resources and services.